Latest Weather Observations for Coolangatta

IDQ60801

Issued at 12:02 pm EST Thursday 30 July 2015 (issued every 30 minutes, with the page automatically refreshed every 10 minutes)

About weather observations | Map of weather stations | Latest weather observations for QLD | Other Formats
Station Details ID: 040717 Name: COOLANGATTA Lat: -28.17 Lon: 153.51 Height: 4.0 m
Data from the previous 72 hours. | See also: Recent months at Coolangatta
Date/Time
EST
Temp
°C
App
Temp
°C
Dew
Point
Rel
Hum
%
Delta-T
°C
Wind Press
QNH
hPa
Press
MSL
hPa
Rain
since 9 am
mm
Dir
 
Spd
km/h
Gust
km/h
Spd
kts
Gust
kts
30/12:00pm 20.5 19.1 10.9 54 5.2 NE 9 15 5 8 1026.2 1026.2 0.0
30/11:30am 19.9 19.1 10.9 56 4.9 SSE 6 11 3 6 1026.7 1026.7 0.0
30/11:00am 19.5 18.3 11.5 60 4.4 SSE 9 17 5 9 1027.3 1027.3 0.0
30/10:30am 19.3 16.6 11.8 62 4.1 SSE 17 20 9 11 1027.7 1027.7 0.0
30/10:00am 19.7 18.0 12.5 63 4.0 S 13 20 7 11 1028.0 1028.0 0.0
30/09:30am 18.8 17.1 12.3 66 3.6 SSW 13 17 7 9 1028.0 1028.0 0.0
30/09:00am 18.3 16.9 12.1 67 3.4 S 11 15 6 8 1028.1 1028.1 0.0
30/08:30am 17.3 16.3 12.4 73 2.7 SSE 9 13 5 7 1027.7 1027.7 0.0
30/08:00am 15.9 15.8 12.1 78 2.1 SSW 4 11 2 6 1027.7 1027.7 0.0
30/07:30am 14.0 13.4 11.7 86 1.2 SSW 6 7 3 4 1027.5 1027.5 0.0
30/07:00am 12.7 11.9 11.1 90 0.8 SSW 6 6 3 3 1027.2 1027.2 0.0
30/06:30am 11.5 10.2 9.8 89 0.9 SSW 7 9 4 5 1027.1 1027.1 0.0
30/06:00am 12.5 12.4 10.7 89 0.9 S 2 6 1 3 1026.9 1026.9 0.0
30/05:30am 12.5 11.4 10.6 88 1.0 S 7 9 4 5 1026.8 1026.8 0.0
30/05:00am 12.7 11.6 10.6 87 1.1 S 7 9 4 5 1026.9 1026.9 0.0
30/04:30am 13.0 12.0 10.9 87 1.1 SW 7 11 4 6 1026.9 1026.9 0.0
30/04:00am 13.0 12.1 10.7 86 1.2 SSW 6 7 3 4 1027.0 1027.0 0.0
30/03:30am 13.8 11.7 11.0 83 1.5 SW 13 19 7 10 1027.3 1027.3 0.0
30/03:00am 13.9 12.2 11.1 83 1.5 SW 11 15 6 8 1027.5 1027.5 0.0
30/02:30am 14.1 12.4 11.3 83 1.5 SW 11 17 6 9 1027.9 1027.9 0.0
30/02:17am 13.8 12.4 10.8 82 1.6 SSW 9 13 5 7 1027.9 1027.9 0.0
30/02:00am 14.0 12.6 11.0 82 1.6 SSE 9 11 5 6 1028.0 1028.0 0.0
30/01:58am 14.2 12.8 10.8 80 1.8 SSE 9 11 5 6 1028.0 1028.0 0.0
30/01:30am 14.8 13.0 9.4 70 2.8 SSW 9 15 5 8 1028.1 1028.1 0.0
30/01:00am 14.2 12.4 9.4 73 2.4 SSW 9 15 5 8 1028.4 1028.4 0.0
30/12:30am 13.2 11.3 8.9 75 2.2 SW 9 11 5 6 1028.5 1028.5 0.0
30/12:00am 14.0 11.9 8.4 69 2.8 SW 9 13 5 7 1029.0 1029.0 0.0
 
Date/Time
EST
Temp
°C
App
Temp
°C
Dew
Point
Rel
Hum
%
Delta-T
°C
Wind Press
QNH
hPa
Press
MSL
hPa
Rain
since 9 am
mm
Dir
 
Spd
km/h
Gust
km/h
Spd
kts
Gust
kts
29/11:30pm 14.6 11.7 8.1 65 3.2 SW 13 17 7 9 1029.4 1029.4 0.0
29/11:00pm 14.3 10.9 7.8 65 3.2 SSW 15 19 8 10 1029.3 1029.3 0.0
29/10:30pm 12.8 11.2 8.9 77 2.0 SW 7 11 4 6 1029.3 1029.3 0.0
29/10:00pm 12.7 11.2 9.2 79 1.8 WSW 7 9 4 5 1029.5 1029.5 0.0
29/09:30pm 13.1 11.5 8.6 74 2.2 SSW 7 9 4 5 1029.4 1029.4 0.0
29/09:00pm 13.9 11.7 7.7 66 3.0 SSW 9 13 5 7 1029.4 1029.4 0.0
29/08:30pm 13.5 12.3 9.4 76 2.1 SSW 6 7 3 4 1029.4 1029.4 0.0
29/08:00pm 13.3 11.7 8.6 73 2.3 SW 7 11 4 6 1029.7 1029.7 0.0
29/07:30pm 14.2 12.4 7.9 66 3.1 SSW 7 9 4 5 1029.5 1029.5 0.0
29/07:00pm 14.1 13.8 8.5 69 2.8 CALM 0 6 0 3 1029.3 1029.3 0.0
29/06:30pm 14.2 12.2 8.6 69 2.8 SW 9 11 5 6 1029.0 1029.0 0.0
29/06:00pm 14.6 12.3 7.4 62 3.5 S 9 11 5 6 1028.8 1028.8 0.0
29/05:30pm 15.1 12.8 7.4 60 3.8 S 9 13 5 7 1028.7 1028.7 0.0
29/05:00pm 16.5 13.8 7.2 54 4.6 SSE 11 17 6 9 1028.4 1028.4 0.0
29/04:30pm 18.3 15.2 7.1 48 5.6 SSE 13 17 7 9 1028.1 1028.1 0.0
29/04:00pm 19.0 15.5 7.1 46 6.0 SSE 15 20 8 11 1028.1 1028.1 0.0
29/03:30pm 19.4 15.4 6.8 44 6.3 SSE 17 20 9 11 1028.0 1028.0 0.0
29/03:00pm 19.8 16.1 6.5 42 6.6 SSE 15 22 8 12 1028.2 1028.2 0.0
29/02:30pm 20.2 17.0 6.9 42 6.7 SSW 13 20 7 11 1028.2 1028.2 0.0
29/02:00pm 19.7 15.9 5.7 40 6.9 S 15 22 8 12 1028.5 1028.5 0.0
29/01:30pm 19.4 15.2 5.5 40 6.8 SSW 17 24 9 13 1028.8 1028.8 0.0
29/01:00pm 19.4 15.9 5.5 40 6.8 SSW 13 20 7 11 1029.2 1029.2 0.0
29/12:30pm 19.3 15.2 6.1 42 6.5 S 17 22 9 12 1029.7 1029.7 0.0
29/12:00pm 19.0 14.4 5.5 41 6.5 S 19 28 10 15 1030.1 1030.1 0.0
29/11:30am 18.9 14.0 5.0 40 6.7 S 20 28 11 15 1030.7 1030.7 0.0
29/11:00am 18.6 14.3 5.1 41 6.5 SSW 17 24 9 13 1031.2 1031.2 0.0
29/10:30am 17.8 12.8 3.7 39 6.6 SSW 19 26 10 14 1031.6 1031.6 0.0
29/10:00am 17.6 12.8 4.5 42 6.2 SSW 19 26 10 14 1032.0 1032.0 0.0
29/09:30am 16.8 11.7 4.2 43 5.9 SSW 20 28 11 15 1032.3 1032.3 0.0
29/09:00am 16.0 11.5 4.4 46 5.4 SSW 17 24 9 13 1032.2 1032.2 0.0
29/08:30am 15.6 11.5 4.6 48 5.1 SSW 15 28 8 15 1031.9 1031.9 0.0
29/08:00am 14.6 10.1 4.0 49 4.8 SSW 17 24 9 13 1031.7 1031.7 0.0
29/07:30am 13.8 8.9 4.1 52 4.4 SSW 19 28 10 15 1031.8 1031.8 0.0
29/07:00am 13.1 8.6 4.3 55 4.0 SSW 17 30 9 16 1031.4 1031.4 0.0
29/06:30am 13.1 8.3 4.5 56 3.9 SSW 19 28 10 15 1031.1 1031.1 0.0
29/06:00am 12.8 8.4 4.5 57 3.8 SSW 17 26 9 14 1030.8 1030.8 0.0
29/05:30am 13.0 8.2 4.4 56 3.9 SSW 19 28 10 15 1030.3 1030.3 0.0
29/05:00am 12.9 8.4 4.3 56 3.9 SSW 17 28 9 15 1030.1 1030.1 0.0
29/04:30am 13.0 8.6 4.7 57 3.8 SSW 17 26 9 14 1029.9 1029.9 0.0
29/04:00am 13.3 8.5 4.5 55 4.0 SSW 19 28 10 15 1029.9 1029.9 0.0
29/03:30am 13.8 8.8 4.7 54 4.2 SW 20 28 11 15 1029.9 1029.9 0.0
29/03:00am 13.5 9.1 4.9 56 3.9 SSW 17 26 9 14 1030.0 1030.0 0.0
29/02:30am 13.4 9.4 4.8 56 4.0 SSW 15 26 8 14 1030.0 1030.0 0.0
29/02:00am 13.8 9.4 4.9 55 4.1 SSW 17 26 9 14 1030.0 1030.0 0.0
29/01:30am 13.7 9.7 4.8 55 4.1 SW 15 28 8 15 1030.1 1030.1 0.0
29/01:00am 13.6 9.6 4.7 55 4.1 SW 15 20 8 11 1030.3 1030.3 0.0
29/12:30am 13.6 9.2 5.0 56 4.0 SW 17 26 9 14 1030.5 1030.5 0.0
29/12:00am 13.2 9.2 4.9 57 3.8 SW 15 20 8 11 1030.4 1030.4 0.0
 
Date/Time
EST
Temp
°C
App
Temp
°C
Dew
Point
Rel
Hum
%
Delta-T
°C
Wind Press
QNH
hPa
Press
MSL
hPa
Rain
since 9 am
mm
Dir
 
Spd
km/h
Gust
km/h
Spd
kts
Gust
kts
28/11:30pm 13.4 9.0 4.6 55 4.0 SW 17 24 9 13 1030.6 1030.6 0.0
28/11:00pm 13.2 9.1 4.4 55 4.0 SSW 15 20 8 11 1030.8 1030.8 0.0
28/10:30pm 13.3 9.2 4.2 54 4.1 SW 15 22 8 12 1030.9 1030.9 0.0
28/10:00pm 13.0 8.9 4.2 55 4.0 SSW 15 24 8 13 1030.9 1030.9 0.0
28/09:30pm 12.6 8.8 4.1 56 3.8 SSW 13 19 7 10 1030.9 1030.9 0.0
28/09:00pm 12.6 8.4 3.8 55 3.9 SSW 15 19 8 10 1031.0 1031.0 0.0
28/08:30pm 13.1 8.9 4.0 54 4.1 SSW 15 20 8 11 1030.9 1030.9 0.0
28/08:00pm 12.1 8.6 3.6 56 3.7 SSW 11 15 6 8 1030.9 1030.9 0.0
28/07:30pm 12.3 8.6 4.3 58 3.6 S 13 17 7 9 1030.7 1030.7 0.0
28/07:00pm 12.7 9.0 4.4 57 3.7 S 13 19 7 10 1030.5 1030.5 0.0
28/06:30pm 13.5 9.0 4.4 54 4.2 S 17 22 9 12 1030.2 1030.2 0.0
28/06:00pm 13.6 9.8 5.7 59 3.7 S 15 22 8 12 1029.7 1029.7 0.0
28/05:30pm 13.1 10.4 5.8 61 3.4 SSE 9 13 5 7 1029.4 1029.4 0.0
28/05:00pm 15.1 11.1 5.0 51 4.7 S 15 20 8 11 1029.2 1029.2 0.0
28/04:30pm 16.4 11.6 4.4 45 5.6 S 19 24 10 13 1029.1 1029.1 0.0
28/04:00pm 17.3 12.3 4.6 43 6.0 SSE 20 28 11 15 1028.8 1028.8 0.0
28/03:30pm 17.7 12.2 3.9 40 6.5 SSE 22 32 12 17 1028.7 1028.7 0.0
28/03:00pm 18.1 12.3 4.3 40 6.5 SSE 24 33 13 18 1028.4 1028.4 0.0
28/02:30pm 18.3 12.9 4.5 40 6.6 SSE 22 32 12 17 1028.4 1028.4 0.0
28/02:00pm 18.5 13.1 4.7 40 6.6 SSE 22 32 12 17 1028.5 1028.5 0.0
28/01:30pm 18.7 13.8 5.2 41 6.5 SSE 20 30 11 16 1028.7 1028.7 0.0
28/01:00pm 18.1 13.0 4.3 40 6.5 SSE 20 28 11 15 1028.9 1028.9 0.0
28/12:30pm 18.4 13.1 4.9 41 6.5 SSE 22 30 12 16 1029.4 1029.4 0.0
28/12:00pm 18.1 13.2 5.3 43 6.1 S 20 28 11 15 1029.6 1029.6 0.0
28/11:30am 17.5 12.9 5.4 45 5.8 SSW 19 30 10 16 1030.1 1030.1 0.0
28/11:00am 17.6 12.9 5.9 46 5.7 S 20 32 11 17 1030.4 1030.4 0.0
28/10:30am 17.2 12.4 5.8 47 5.5 S 20 28 11 15 1030.6 1030.6 0.0
28/10:00am 16.4 11.5 5.1 47 5.3 SSW 20 30 11 16 1030.7 1030.7 0.0
28/09:30am 15.9 11.1 4.9 48 5.2 SSW 19 30 10 16 1030.5 1030.5 0.0
28/09:00am 15.2 10.9 5.1 51 4.7 SSW 17 26 9 14 1030.3 1030.3 0.0
28/08:30am 14.7 10.7 5.0 52 4.5 SW 15 20 8 11 1030.0 1030.0 0.0
28/08:00am 13.7 9.3 4.6 54 4.2 SW 17 26 9 14 1029.5 1029.5 0.0
28/07:30am 13.0 8.9 4.2 55 4.0 SW 15 20 8 11 1029.4 1029.4 0.0
28/07:00am 12.4 8.3 4.1 57 3.7 SW 15 20 8 11 1028.9 1028.9 0.0
28/06:30am 12.1 7.9 3.9 57 3.7 SSW 15 24 8 13 1028.6 1028.6 0.0
28/06:00am 12.8 7.8 3.5 53 4.1 SSW 19 32 10 17 1028.2 1028.2 0.0
28/05:30am 13.0 8.4 3.7 53 4.2 SSW 17 28 9 15 1027.9 1027.9 0.0
28/05:00am 12.9 8.4 4.1 55 4.0 SSW 17 20 9 11 1027.5 1027.5 0.0
28/04:30am 12.8 9.6 5.2 60 3.5 SSW 11 24 6 13 1027.3 1027.3 0.0
28/04:00am 12.9 9.6 6.3 64 3.1 SSW 13 17 7 9 1027.1 1027.1 0.0
28/03:30am 12.9 9.6 6.3 64 3.1 SSW 13 19 7 10 1026.9 1026.9 0.0
28/03:00am 13.5 9.6 7.1 65 3.1 S 17 24 9 13 1026.8 1026.8 0.0
28/02:30am 13.8 10.2 8.4 70 2.7 SSW 17 26 9 14 1026.7 1026.7 0.0
28/02:00am 15.0 11.5 8.9 67 3.1 SSW 17 22 9 12 1026.6 1026.6 0.0
28/01:30am 15.1 12.4 9.0 67 3.1 SSW 13 17 7 9 1026.8 1026.8 0.0
28/01:00am 15.1 12.5 9.2 68 3.0 SSW 13 20 7 11 1026.7 1026.7 0.0
28/12:30am 14.9 12.3 9.5 70 2.8 SSW 13 19 7 10 1026.6 1026.6 0.0
28/12:00am 14.7 12.2 9.7 72 2.6 SSW 13 17 7 9 1026.4 1026.4 0.0
 
Date/Time
EST
Temp
°C
App
Temp
°C
Dew
Point
Rel
Hum
%
Delta-T
°C
Wind Press
QNH
hPa
Press
MSL
hPa
Rain
since 9 am
mm
Dir
 
Spd
km/h
Gust
km/h
Spd
kts
Gust
kts
27/11:30pm 15.3 12.9 10.1 71 2.7 SSW 13 19 7 10 1026.4 1026.4 0.0
27/11:00pm 15.3 13.1 10.9 75 2.3 SSW 13 20 7 11 1026.5 1026.5 0.0
27/10:30pm 13.9 12.4 10.7 81 1.7 SSW 9 13 5 7 1026.3 1026.3 0.0
27/10:00pm 13.1 12.0 10.8 86 1.2 SW 7 9 4 5 1026.3 1026.3 0.0
27/09:30pm 13.1 11.4 9.9 81 1.6 SW 9 11 5 6 1025.9 1025.9 0.0
27/09:00pm 13.3 11.3 10.1 81 1.6 WSW 11 13 6 7 1025.7 1025.7 0.0
27/08:30pm 12.5 11.2 9.9 84 1.3 SW 7 9 4 5 1025.5 1025.5 0.0
27/08:00pm 13.0 11.9 10.5 85 1.3 WSW 7 9 4 5 1025.2 1025.2 0.0
27/07:30pm 13.1 11.3 10.8 86 1.2 WSW 11 13 6 7 1024.8 1024.8 0.0
27/07:00pm 13.3 11.5 10.7 84 1.4 WSW 11 13 6 7 1024.3 1024.3 0.0
27/06:30pm 13.8 12.3 10.6 81 1.7 WSW 9 11 5 6 1024.0 1024.0 0.0
27/06:00pm 14.1 12.6 10.5 79 1.9 SW 9 11 5 6 1023.6 1023.6 0.0
27/05:30pm 15.6 14.0 8.6 63 3.6 S 7 9 4 5 1023.4 1023.4 0.0
27/05:00pm 16.6 14.9 8.3 58 4.2 S 7 11 4 6 1023.0 1023.0 0.0
27/04:30pm 17.6 15.2 8.7 56 4.6 SSE 11 17 6 9 1022.6 1022.6 0.0
27/04:00pm 18.5 16.4 8.2 51 5.3 S 9 13 5 7 1022.3 1022.3 0.0
27/03:30pm 19.1 15.7 7.5 47 5.9 S 15 19 8 10 1022.0 1022.0 0.0
27/03:00pm 19.5 17.1 8.5 49 5.7 SSW 11 17 6 9 1021.9 1021.9 0.0
27/02:30pm 19.7 16.6 7.1 44 6.4 S 13 20 7 11 1021.8 1021.8 0.0
27/02:00pm 19.9 16.4 7.3 44 6.4 SSW 15 20 8 11 1021.9 1021.9 0.0
27/01:30pm 20.4 16.6 7.7 44 6.5 S 17 24 9 13 1021.8 1021.8 0.0
27/01:00pm 20.8 17.5 8.1 44 6.6 S 15 20 8 11 1022.0 1022.0 0.0
27/12:30pm 20.2 18.5 8.5 47 6.1 NE 7 15 4 8 1022.5 1022.5 0.0

Other Formats:

Comma delimited format used in spreadsheet applications
http://www.bom.gov.au/fwo/IDQ60801/IDQ60801.94592.axf

JavaScript Object Notation format (JSON) in row-major order
http://www.bom.gov.au/fwo/IDQ60801/IDQ60801.94592.json